Terminal Aerodrome Forecast
Issued by NWS

Home | Current Version | Previous Version | Text Only | Print | Product List | Glossary On
Versions: 1 2 3 4 5 6 7 8 9 10 11 12 13
000
FTUS43 KAPX 252336
TAFMBL
TAF
KMBL 252336Z 2600/2624 09012G22KT P6SM -RA BKN014 BKN024
     FM260300 10009KT 5SM -RA BR OVC008
     FM260900 11007KT 4SM -RA BR OVC025
     FM261000 11006KT 3SM -RA BR OVC015
     FM261200 11005KT 3SM BR VCSH OVC015
     FM261400 12006KT 2SM BR VCSH OVC015
     FM261600 12007KT 1 1/2SM -RA BR OVC008
     FM261800 12007KT 1SM BR OVC008
     FM262100 13005KT 1/2SM FG OVC003
     FM262200 13004KT 3/4SM BR OVC003=

USA.gov is the U.S. government's official web portal to all federal, state and local government web resources and services.